Time;durP1;ratioP1;P1;durP2;ratioP2;P2;SDS_P1;SDS_P2;PMS_P1;PMS_P2;Temp;Humidity;BMP_temperature;BMP_pressure;BME280_temperature;BME280_humidity;BME280_pressure;Samples;Min_cycle;Max_cycle;Signal;HPM_P1;HPM_P2
2023/09/09 00:01:34;;;;;;;8.57;6.63;;;;;;;;;;5058431;28;20061;-69
2023/09/09 00:04:02;;;;;;;8.48;6.38;;;;;;;;;;5055473;28;20032;-68
2023/09/09 00:06:28;;;;;;;10.65;6.85;;;;;;;;;;5055574;28;20056;-69
2023/09/09 00:08:54;;;;;;;8.65;6.55;;;;;;;;;;5055786;28;20192;-69
2023/09/09 00:11:20;;;;;;;8.25;6.65;;;;;;;;;;5057179;28;20060;-68
2023/09/09 00:13:47;;;;;;;9.57;7.70;;;;;;;;;;5055835;28;20029;-68
2023/09/09 00:16:13;;;;;;;10.38;7.60;;;;;;;;;;5056419;28;20107;-69
2023/09/09 00:18:39;;;;;;;10.63;8.05;;;;;;;;;;5058134;28;20057;-68
2023/09/09 00:21:05;;;;;;;9.80;7.40;;;;;;;;;;5057966;28;20028;-68
2023/09/09 00:23:31;;;;;;;10.27;7.35;;;;;;;;;;5057552;28;20032;-68
2023/09/09 00:25:57;;;;;;;9.13;7.70;;;;;;;;;;5057993;28;20032;-68
2023/09/09 00:28:23;;;;;;;10.10;8.43;;;;;;;;;;5057841;28;20063;-68
2023/09/09 00:30:50;;;;;;;10.98;9.02;;;;;;;;;;5057731;28;20131;-69
2023/09/09 00:33:16;;;;;;;11.32;9.80;;;;;;;;;;5054456;28;20036;-69
2023/09/09 00:35:42;;;;;;;10.38;9.23;;;;;;;;;;5057569;28;20032;-68
2023/09/09 00:38:09;;;;;;;13.43;10.18;;;;;;;;;;5057422;28;20053;-68
2023/09/09 00:40:36;;;;;;;11.98;9.18;;;;;;;;;;5057524;28;20044;-68
2023/09/09 00:43:02;;;;;;;13.38;11.15;;;;;;;;;;5057353;28;20166;-69
2023/09/09 00:45:28;;;;;;;15.57;12.15;;;;;;;;;;5057355;28;20103;-68
2023/09/09 00:47:55;;;;;;;12.05;10.80;;;;;;;;;;5057825;28;20044;-68
2023/09/09 00:50:22;;;;;;;10.05;8.48;;;;;;;;;;5056058;28;20028;-68
2023/09/09 00:52:48;;;;;;;10.52;8.05;;;;;;;;;;5057301;28;20066;-68
2023/09/09 00:55:14;;;;;;;11.15;9.57;;;;;;;;;;5057224;28;20036;-68
2023/09/09 00:57:40;;;;;;;13.25;8.68;;;;;;;;;;5057501;28;20040;-68
2023/09/09 01:00:09;;;;;;;11.15;9.95;;;;;;;;;;5057209;28;20475;-69
2023/09/09 01:02:37;;;;;;;11.25;9.90;;;;;;;;;;5056647;28;20516;-68
2023/09/09 01:05:04;;;;;;;11.00;9.90;;;;;;;;;;5057624;28;20035;-69
2023/09/09 01:07:41;;;;;;;14.65;11.68;;;;;;;;;;5056865;28;20077;-69
2023/09/09 01:10:07;;;;;;;13.75;10.40;;;;;;;;;;5056832;28;20021;-68
2023/09/09 01:12:33;;;;;;;14.70;11.98;;;;;;;;;;5056995;28;20075;-68
2023/09/09 01:15:00;;;;;;;12.35;10.80;;;;;;;;;;5055958;28;20093;-68
2023/09/09 01:17:26;;;;;;;12.43;10.90;;;;;;;;;;5057325;28;20040;-69
2023/09/09 01:19:58;;;;;;;11.13;10.00;;;;;;;;;;5057055;28;20043;-68
2023/09/09 01:22:33;;;;;;;14.10;10.45;;;;;;;;;;5057240;28;20803;-69
2023/09/09 01:24:59;;;;;;;11.68;9.00;;;;;;;;;;5056634;28;20032;-68
2023/09/09 01:27:25;;;;;;;11.98;8.98;;;;;;;;;;5056825;28;20043;-69
2023/09/09 01:29:51;;;;;;;11.15;8.52;;;;;;;;;;5056636;28;20024;-68
2023/09/09 01:32:18;;;;;;;9.95;8.50;;;;;;;;;;5057075;28;22017;-68
2023/09/09 01:34:44;;;;;;;9.80;8.77;;;;;;;;;;5056475;28;20044;-69
2023/09/09 01:37:10;;;;;;;9.20;8.23;;;;;;;;;;5056554;28;20033;-69
2023/09/09 01:39:36;;;;;;;10.55;8.60;;;;;;;;;;5056546;28;20028;-69
2023/09/09 01:42:02;;;;;;;11.68;9.50;;;;;;;;;;5056011;28;20032;-68
2023/09/09 01:44:28;;;;;;;11.20;9.43;;;;;;;;;;5056386;28;21602;-68
2023/09/09 01:46:54;;;;;;;11.48;10.27;;;;;;;;;;5056693;28;20066;-68
2023/09/09 01:49:20;;;;;;;11.25;10.05;;;;;;;;;;5056636;28;20040;-69
2023/09/09 01:51:46;;;;;;;12.70;11.15;;;;;;;;;;5056462;28;20032;-68
2023/09/09 01:54:12;;;;;;;11.65;10.45;;;;;;;;;;5055820;28;20510;-69
2023/09/09 01:56:38;;;;;;;12.52;10.80;;;;;;;;;;5056682;28;20461;-68
2023/09/09 01:59:05;;;;;;;13.63;10.23;;;;;;;;;;5055982;28;21737;-68
2023/09/09 02:01:31;;;;;;;12.93;10.05;;;;;;;;;;5056638;28;20040;-69
2023/09/09 02:03:57;;;;;;;16.30;10.02;;;;;;;;;;5055979;28;20028;-69
2023/09/09 02:06:23;;;;;;;12.10;10.02;;;;;;;;;;5056829;28;20424;-68
2023/09/09 02:08:49;;;;;;;14.25;10.40;;;;;;;;;;5056338;28;20465;-69
2023/09/09 02:11:15;;;;;;;13.70;10.05;;;;;;;;;;5056099;28;20036;-69
2023/09/09 02:13:41;;;;;;;11.55;9.88;;;;;;;;;;5055651;28;20032;-68
2023/09/09 02:16:07;;;;;;;12.32;10.98;;;;;;;;;;5053512;28;20028;-68
2023/09/09 02:18:37;;;;;;;12.65;10.25;;;;;;;;;;5053234;28;20054;-69
2023/09/09 02:21:03;;;;;;;12.00;10.45;;;;;;;;;;5051823;28;20039;-68
2023/09/09 02:23:29;;;;;;;12.77;10.45;;;;;;;;;;5054513;28;20047;-69
2023/09/09 02:25:56;;;;;;;12.25;10.95;;;;;;;;;;5054858;28;20043;-68
2023/09/09 02:28:22;;;;;;;13.18;11.77;;;;;;;;;;5055564;28;21743;-69
2023/09/09 02:30:49;;;;;;;14.80;11.75;;;;;;;;;;5056069;28;20486;-68
2023/09/09 02:33:15;;;;;;;13.98;10.40;;;;;;;;;;5055286;28;20578;-68
2023/09/09 02:35:42;;;;;;;11.30;9.88;;;;;;;;;;5056035;28;20032;-68
2023/09/09 02:38:08;;;;;;;11.20;9.90;;;;;;;;;;5055149;28;20554;-68
2023/09/09 02:40:34;;;;;;;12.13;8.57;;;;;;;;;;5055888;28;20434;-68
2023/09/09 02:43:00;;;;;;;10.30;8.50;;;;;;;;;;5054516;28;20727;-68
2023/09/09 02:45:26;;;;;;;11.45;9.30;;;;;;;;;;5055297;28;20067;-69
2023/09/09 02:47:52;;;;;;;11.40;8.43;;;;;;;;;;5055680;28;20045;-68
2023/09/09 02:50:18;;;;;;;11.77;9.50;;;;;;;;;;5054262;28;20105;-68
2023/09/09 02:52:44;;;;;;;10.95;9.43;;;;;;;;;;5054962;28;20024;-69
2023/09/09 02:55:11;;;;;;;10.50;7.68;;;;;;;;;;5055567;28;20032;-68
2023/09/09 02:57:37;;;;;;;9.57;8.57;;;;;;;;;;5055385;28;21745;-68
2023/09/09 03:00:07;;;;;;;14.20;9.57;;;;;;;;;;5055648;28;20666;-68
2023/09/09 03:02:34;;;;;;;13.80;10.32;;;;;;;;;;5054814;28;20039;-69
2023/09/09 03:05:03;;;;;;;12.60;11.30;;;;;;;;;;5054756;28;20028;-69
2023/09/09 03:07:29;;;;;;;12.95;11.23;;;;;;;;;;5054598;28;20503;-69
2023/09/09 03:09:56;;;;;;;13.95;10.73;;;;;;;;;;5054139;28;20649;-68
2023/09/09 03:12:22;;;;;;;15.82;11.25;;;;;;;;;;5054755;28;20086;-68
2023/09/09 03:14:48;;;;;;;14.30;11.45;;;;;;;;;;5054050;28;20600;-69
2023/09/09 03:17:14;;;;;;;14.73;11.50;;;;;;;;;;5055290;28;20044;-69
2023/09/09 03:19:40;;;;;;;13.45;11.75;;;;;;;;;;5054880;28;20068;-68
2023/09/09 03:22:06;;;;;;;15.40;11.25;;;;;;;;;;5054673;28;20044;-68
2023/09/09 03:24:32;;;;;;;14.38;12.30;;;;;;;;;;5055350;28;20069;-68
2023/09/09 03:26:58;;;;;;;13.80;11.90;;;;;;;;;;5054926;28;20032;-69
2023/09/09 03:29:24;;;;;;;18.00;12.90;;;;;;;;;;5054694;28;20036;-69
2023/09/09 03:31:51;;;;;;;16.38;13.32;;;;;;;;;;5055228;28;20046;-69
2023/09/09 03:34:17;;;;;;;15.15;12.18;;;;;;;;;;5058778;28;20178;-68
2023/09/09 03:36:43;;;;;;;17.27;13.75;;;;;;;;;;5059292;28;20170;-69
2023/09/09 03:39:09;;;;;;;14.32;12.27;;;;;;;;;;5059317;28;20028;-68
2023/09/09 03:41:35;;;;;;;14.13;12.63;;;;;;;;;;5057960;28;20040;-68
2023/09/09 03:44:01;;;;;;;16.50;12.57;;;;;;;;;;5058755;28;20617;-68
2023/09/09 03:46:27;;;;;;;16.08;13.43;;;;;;;;;;5074385;28;20908;-68
2023/09/09 03:48:54;;;;;;;14.95;13.45;;;;;;;;;;5058532;28;20059;-68
2023/09/09 03:51:20;;;;;;;16.17;14.10;;;;;;;;;;5058597;28;20032;-68
2023/09/09 03:53:46;;;;;;;21.15;14.50;;;;;;;;;;5074782;28;20024;-68
2023/09/09 03:56:12;;;;;;;15.30;13.68;;;;;;;;;;5058816;28;20105;-69
2023/09/09 03:58:38;;;;;;;16.42;13.80;;;;;;;;;;5059083;28;20074;-68
2023/09/09 04:01:05;;;;;;;16.92;14.98;;;;;;;;;;5058188;28;20059;-69
2023/09/09 04:03:33;;;;;;;16.63;14.93;;;;;;;;;;5058292;28;20035;-68
2023/09/09 04:06:01;;;;;;;16.38;14.52;;;;;;;;;;5056543;28;20040;-69
2023/09/09 04:08:29;;;;;;;15.82;14.18;;;;;;;;;;5058410;28;20593;-68
2023/09/09 04:10:55;;;;;;;15.57;13.93;;;;;;;;;;5059003;28;20044;-69
2023/09/09 04:13:21;;;;;;;16.23;14.45;;;;;;;;;;5058036;28;20032;-68
2023/09/09 04:15:47;;;;;;;19.50;16.20;;;;;;;;;;5058004;28;20040;-68
2023/09/09 04:18:13;;;;;;;17.92;16.02;;;;;;;;;;5058257;28;20040;-68
2023/09/09 04:20:39;;;;;;;18.65;16.65;;;;;;;;;;5058517;28;20032;-68
2023/09/09 04:23:06;;;;;;;17.88;15.98;;;;;;;;;;5057231;28;20036;-69
2023/09/09 04:25:32;;;;;;;19.30;16.42;;;;;;;;;;5055731;28;20042;-69
2023/09/09 04:27:58;;;;;;;17.95;16.08;;;;;;;;;;5055415;28;20068;-68
2023/09/09 04:30:24;;;;;;;16.67;14.98;;;;;;;;;;5057398;28;20048;-69
2023/09/09 04:32:50;;;;;;;16.83;14.35;;;;;;;;;;5056519;28;20047;-68
2023/09/09 04:35:16;;;;;;;17.15;15.38;;;;;;;;;;5056898;28;20548;-69
2023/09/09 04:37:42;;;;;;;19.85;16.88;;;;;;;;;;5057291;28;20035;-68
2023/09/09 04:40:10;;;;;;;17.73;15.70;;;;;;;;;;5056943;28;20036;-68
2023/09/09 04:42:36;;;;;;;23.45;18.52;;;;;;;;;;5058217;28;20074;-68
2023/09/09 04:45:03;;;;;;;22.88;20.02;;;;;;;;;;5056623;28;20074;-69
2023/09/09 04:47:29;;;;;;;22.77;17.90;;;;;;;;;;5055847;28;20071;-69
2023/09/09 04:49:57;;;;;;;20.48;17.85;;;;;;;;;;5056110;28;20044;-69
2023/09/09 04:52:24;;;;;;;18.67;16.45;;;;;;;;;;5054644;28;20115;-68
2023/09/09 04:54:50;;;;;;;17.45;15.63;;;;;;;;;;5056435;28;21834;-68
2023/09/09 04:57:16;;;;;;;20.25;17.25;;;;;;;;;;5056359;28;20085;-69
2023/09/09 04:59:42;;;;;;;20.42;18.30;;;;;;;;;;5057136;28;20024;-68
2023/09/09 05:02:13;;;;;;;22.17;18.88;;;;;;;;;;5055609;28;20047;-69
2023/09/09 05:04:39;;;;;;;24.52;19.17;;;;;;;;;;5056877;28;20068;-69
2023/09/09 05:07:05;;;;;;;21.58;19.23;;;;;;;;;;5055845;28;20044;-70
2023/09/09 05:09:31;;;;;;;24.80;21.95;;;;;;;;;;5055161;28;20021;-69
2023/09/09 05:11:57;;;;;;;22.60;19.30;;;;;;;;;;5054693;28;20800;-68
2023/09/09 05:14:23;;;;;;;19.95;17.70;;;;;;;;;;5056166;28;20051;-68
2023/09/09 05:16:49;;;;;;;19.98;17.88;;;;;;;;;;5056791;28;20039;-68
2023/09/09 05:19:15;;;;;;;20.55;17.85;;;;;;;;;;5055951;28;20398;-68
2023/09/09 05:21:41;;;;;;;22.67;20.27;;;;;;;;;;5056586;28;20040;-69
2023/09/09 05:24:08;;;;;;;20.52;18.42;;;;;;;;;;5056791;28;20032;-69
2023/09/09 05:26:34;;;;;;;23.52;20.17;;;;;;;;;;5057514;28;21052;-68
2023/09/09 05:29:01;;;;;;;22.50;20.10;;;;;;;;;;5057400;28;20032;-68
2023/09/09 05:31:27;;;;;;;20.65;18.40;;;;;;;;;;5057516;28;21417;-68
2023/09/09 05:33:53;;;;;;;21.42;19.20;;;;;;;;;;5056892;28;20498;-68
2023/09/09 05:36:19;;;;;;;21.58;19.33;;;;;;;;;;5055253;28;20569;-69
2023/09/09 05:38:45;;;;;;;23.83;17.83;;;;;;;;;;5056353;28;20036;-68
2023/09/09 05:41:12;;;;;;;23.50;20.60;;;;;;;;;;5055929;28;20036;-68
2023/09/09 05:43:38;;;;;;;21.52;19.27;;;;;;;;;;5056808;28;20115;-69
2023/09/09 05:46:04;;;;;;;20.67;18.50;;;;;;;;;;5056299;28;20096;-68
2023/09/09 05:48:30;;;;;;;21.50;19.27;;;;;;;;;;5056727;28;20079;-69
2023/09/09 05:50:56;;;;;;;19.67;17.58;;;;;;;;;;5056178;28;20024;-68
2023/09/09 05:53:22;;;;;;;20.15;17.90;;;;;;;;;;5056300;28;20539;-68
2023/09/09 05:55:49;;;;;;;23.63;18.08;;;;;;;;;;5055753;28;20036;-68
2023/09/09 05:58:15;;;;;;;19.33;17.33;;;;;;;;;;5056519;28;20109;-68
2023/09/09 06:00:41;;;;;;;21.17;17.33;;;;;;;;;;5055416;28;20036;-68
2023/09/09 06:03:07;;;;;;;21.80;19.27;;;;;;;;;;5056128;28;20033;-69
2023/09/09 06:05:34;;;;;;;21.00;17.40;;;;;;;;;;5056106;28;20410;-68
2023/09/09 06:08:00;;;;;;;20.02;17.83;;;;;;;;;;5055620;28;20032;-68
2023/09/09 06:10:26;;;;;;;25.08;19.40;;;;;;;;;;5056579;28;20542;-68
2023/09/09 06:12:52;;;;;;;19.75;17.27;;;;;;;;;;5056351;28;20025;-68
2023/09/09 06:15:18;;;;;;;21.88;19.58;;;;;;;;;;5056146;28;20662;-69
2023/09/09 06:17:45;;;;;;;19.77;17.75;;;;;;;;;;5056191;28;20422;-69
2023/09/09 06:20:12;;;;;;;22.90;20.35;;;;;;;;;;5055614;28;20146;-69
2023/09/09 06:22:38;;;;;;;22.45;20.15;;;;;;;;;;5055144;28;20063;-68
2023/09/09 06:25:05;;;;;;;25.67;22.92;;;;;;;;;;5050020;28;21515;-68
2023/09/09 06:27:31;;;;;;;24.40;21.92;;;;;;;;;;5056146;28;20127;-69
2023/09/09 06:29:57;;;;;;;23.48;20.92;;;;;;;;;;5054194;28;20024;-69
2023/09/09 06:32:23;;;;;;;26.00;22.50;;;;;;;;;;5055500;28;20081;-69
2023/09/09 06:34:49;;;;;;;23.17;20.40;;;;;;;;;;5052740;28;20105;-68
2023/09/09 06:37:15;;;;;;;26.33;22.77;;;;;;;;;;5052358;28;20032;-68
2023/09/09 06:39:41;;;;;;;26.20;21.17;;;;;;;;;;5053070;28;20032;-68
2023/09/09 06:42:07;;;;;;;26.88;22.30;;;;;;;;;;5052862;28;20047;-68
2023/09/09 06:44:33;;;;;;;24.80;21.27;;;;;;;;;;5053172;28;20039;-68
2023/09/09 06:46:59;;;;;;;25.52;22.75;;;;;;;;;;5054278;28;20040;-69
2023/09/09 06:49:26;;;;;;;24.75;22.15;;;;;;;;;;5054274;28;20058;-69
2023/09/09 06:51:53;;;;;;;23.08;20.60;;;;;;;;;;5055310;28;20067;-68
2023/09/09 06:54:19;;;;;;;22.30;19.90;;;;;;;;;;5054650;28;20035;-69
2023/09/09 06:56:46;;;;;;;29.88;24.35;;;;;;;;;;5055452;28;20036;-68
2023/09/09 06:59:13;;;;;;;25.10;22.30;;;;;;;;;;5054824;28;20046;-68
2023/09/09 07:01:39;;;;;;;26.38;22.98;;;;;;;;;;5055491;28;20032;-68
2023/09/09 07:04:05;;;;;;;26.67;23.00;;;;;;;;;;5052060;28;20758;-69
2023/09/09 07:06:31;;;;;;;26.45;23.65;;;;;;;;;;5053819;28;20039;-68
2023/09/09 07:08:57;;;;;;;25.85;22.20;;;;;;;;;;5059483;28;20028;-68
2023/09/09 07:11:24;;;;;;;29.20;25.50;;;;;;;;;;5059051;28;20592;-68
2023/09/09 07:13:51;;;;;;;26.63;23.92;;;;;;;;;;5060478;28;20545;-68
2023/09/09 07:16:17;;;;;;;29.85;26.67;;;;;;;;;;5059587;28;20068;-68
2023/09/09 07:18:43;;;;;;;27.25;24.38;;;;;;;;;;5060539;28;20042;-69
2023/09/09 07:21:09;;;;;;;27.33;24.15;;;;;;;;;;5059872;28;20113;-69
2023/09/09 07:23:36;;;;;;;27.15;24.40;;;;;;;;;;5059837;28;20040;-68
2023/09/09 07:26:02;;;;;;;31.13;27.42;;;;;;;;;;5060308;28;20628;-69
2023/09/09 07:28:29;;;;;;;29.95;26.88;;;;;;;;;;5060721;28;20125;-68
2023/09/09 07:31:01;;;;;;;29.60;26.30;;;;;;;;;;5037569;28;20036;-68
2023/09/09 07:33:28;;;;;;;30.17;26.98;;;;;;;;;;5041513;28;20052;-68
2023/09/09 07:35:54;;;;;;;32.80;28.02;;;;;;;;;;5059758;28;20083;-68
2023/09/09 07:38:21;;;;;;;31.05;27.85;;;;;;;;;;5060416;28;20264;-68
2023/09/09 07:40:48;;;;;;;28.20;25.25;;;;;;;;;;5060107;28;20040;-69
2023/09/09 07:43:14;;;;;;;31.40;28.10;;;;;;;;;;5060788;28;20044;-68
2023/09/09 07:45:47;;;;;;;32.08;28.10;;;;;;;;;;5058214;28;20031;-68
2023/09/09 07:48:13;;;;;;;;;;;;;;;;;;5056947;28;20218;-69
2023/09/09 07:50:40;;;;;;;32.47;28.05;;;;;;;;;;5059957;28;19916;-68
2023/09/09 07:53:06;;;;;;;31.67;28.27;;;;;;;;;;5061252;28;20078;-69
2023/09/09 07:55:34;;;;;;;31.50;28.20;;;;;;;;;;5056478;28;21046;-68
2023/09/09 07:58:00;;;;;;;31.92;28.00;;;;;;;;;;5060093;28;20101;-68
2023/09/09 08:00:26;;;;;;;30.88;27.70;;;;;;;;;;5060264;28;20118;-68
2023/09/09 08:02:52;;;;;;;31.70;27.77;;;;;;;;;;5059750;28;20035;-68
2023/09/09 08:05:19;;;;;;;28.20;25.25;;;;;;;;;;5060779;28;20043;-68
2023/09/09 08:07:45;;;;;;;31.83;28.55;;;;;;;;;;5061583;28;20040;-69
2023/09/09 08:10:12;;;;;;;30.92;27.45;;;;;;;;;;5060670;28;20039;-68
2023/09/09 08:12:38;;;;;;;27.63;24.70;;;;;;;;;;5061791;28;20036;-68
2023/09/09 08:15:05;;;;;;;29.67;25.00;;;;;;;;;;5061270;28;20040;-69
2023/09/09 08:17:31;;;;;;;27.42;24.73;;;;;;;;;;5061203;28;20028;-68
2023/09/09 08:19:57;;;;;;;30.77;23.58;;;;;;;;;;5056658;28;20384;-69
2023/09/09 08:22:23;;;;;;;27.77;24.77;;;;;;;;;;5058174;28;20097;-69
2023/09/09 08:24:49;;;;;;;28.70;24.38;;;;;;;;;;5056979;28;20418;-68
2023/09/09 08:27:15;;;;;;;27.27;24.38;;;;;;;;;;5058746;28;20045;-68
2023/09/09 08:29:43;;;;;;;27.90;24.45;;;;;;;;;;5059258;28;20078;-69
2023/09/09 08:32:09;;;;;;;26.02;23.42;;;;;;;;;;5058776;28;20050;-68
2023/09/09 08:34:37;;;;;;;27.13;24.17;;;;;;;;;;5058172;28;20048;-68
2023/09/09 08:37:03;;;;;;;25.80;23.17;;;;;;;;;;5059921;28;20075;-68
2023/09/09 08:39:29;;;;;;;26.70;24.02;;;;;;;;;;5044957;28;21733;-68
2023/09/09 08:42:04;;;;;;;27.15;24.45;;;;;;;;;;5057436;28;20172;-69
2023/09/09 08:44:59;;;;;;;27.20;24.58;;;;;;;;;;5055549;28;20032;-69
2023/09/09 08:47:26;;;;;;;26.50;23.65;;;;;;;;;;5055872;28;20032;-69
2023/09/09 08:49:53;;;;;;;27.40;24.55;;;;;;;;;;5054639;28;20107;-69
2023/09/09 08:52:24;;;;;;;25.98;23.20;;;;;;;;;;5057536;28;20146;-69
2023/09/09 08:54:50;;;;;;;25.80;23.05;;;;;;;;;;5055979;28;20020;-68
2023/09/09 08:57:17;;;;;;;27.92;24.63;;;;;;;;;;5056579;28;20047;-69
2023/09/09 08:59:44;;;;;;;26.65;23.85;;;;;;;;;;5057161;28;20120;-68
2023/09/09 09:02:11;;;;;;;24.13;21.77;;;;;;;;;;5057678;28;20522;-69
2023/09/09 09:04:38;;;;;;;27.80;23.92;;;;;;;;;;5058297;28;20873;-68
2023/09/09 09:07:04;;;;;;;26.15;23.38;;;;;;;;;;5057832;28;20036;-68
2023/09/09 09:09:31;;;;;;;27.27;24.35;;;;;;;;;;5056967;28;20056;-68
2023/09/09 09:12:00;;;;;;;25.65;23.05;;;;;;;;;;5058061;28;20028;-69
2023/09/09 09:14:28;;;;;;;27.23;24.30;;;;;;;;;;5053973;28;20037;-68
2023/09/09 09:16:55;;;;;;;27.65;24.75;;;;;;;;;;5055215;28;20040;-69
2023/09/09 09:19:30;;;;;;;30.17;24.55;;;;;;;;;;5056167;28;20043;-68
2023/09/09 09:21:57;;;;;;;25.50;22.85;;;;;;;;;;5056110;28;20064;-68
2023/09/09 09:24:27;;;;;;;28.38;24.33;;;;;;;;;;5057082;28;20081;-69
2023/09/09 09:26:54;;;;;;;28.70;24.70;;;;;;;;;;5057019;28;20032;-69
2023/09/09 09:29:20;;;;;;;26.08;23.35;;;;;;;;;;5057162;28;20036;-68
2023/09/09 09:31:53;;;;;;;32.95;25.38;;;;;;;;;;5056080;28;20079;-68
2023/09/09 09:34:20;;;;;;;27.17;24.25;;;;;;;;;;5055900;28;20960;-69
2023/09/09 09:36:46;;;;;;;28.17;24.17;;;;;;;;;;5055191;28;20024;-68
2023/09/09 09:39:12;;;;;;;28.08;25.30;;;;;;;;;;5057702;28;20036;-68
2023/09/09 09:41:43;;;;;;;28.83;25.75;;;;;;;;;;5055732;28;20089;-68
2023/09/09 09:44:19;;;;;;;29.83;26.38;;;;;;;;;;5056982;28;20101;-69
2023/09/09 09:46:59;;;;;;;30.10;27.00;;;;;;;;;;5056720;28;20024;-68
2023/09/09 09:49:33;;;;;;;32.45;28.95;;;;;;;;;;5057326;28;20031;-69
2023/09/09 09:51:59;;;;;;;28.42;25.52;;;;;;;;;;5056228;28;20028;-69
2023/09/09 09:54:25;;;;;;;34.30;30.38;;;;;;;;;;5056147;28;20035;-68
2023/09/09 09:56:52;;;;;;;30.52;27.25;;;;;;;;;;5056691;28;20063;-68
2023/09/09 09:59:20;;;;;;;33.25;29.75;;;;;;;;;;5056157;28;20032;-69
2023/09/09 10:01:48;;;;;;;31.25;27.95;;;;;;;;;;5056888;28;20124;-68
2023/09/09 10:04:17;;;;;;;32.78;29.17;;;;;;;;;;5056353;28;20504;-68
2023/09/09 10:06:45;;;;;;;35.45;30.27;;;;;;;;;;5056009;28;21938;-68
2023/09/09 10:09:18;;;;;;;31.50;28.27;;;;;;;;;;5054826;28;21756;-69
2023/09/09 10:12:05;;;;;;;30.95;27.85;;;;;;;;;;5054311;28;20024;-68
2023/09/09 10:14:31;;;;;;;28.52;25.65;;;;;;;;;;5055617;28;20115;-68
2023/09/09 10:16:58;;;;;;;28.33;24.75;;;;;;;;;;5054490;28;20600;-69
2023/09/09 10:19:24;;;;;;;25.80;23.05;;;;;;;;;;5056012;28;20032;-69
2023/09/09 10:21:51;;;;;;;25.63;20.30;;;;;;;;;;5056907;28;20122;-68
2023/09/09 10:24:18;;;;;;;21.42;17.60;;;;;;;;;;5056575;28;20052;-69
2023/09/09 10:26:45;;;;;;;21.67;19.40;;;;;;;;;;5055447;28;20027;-68
2023/09/09 10:29:11;;;;;;;22.40;20.02;;;;;;;;;;5055517;28;20035;-68
2023/09/09 10:31:39;;;;;;;22.55;18.95;;;;;;;;;;5053566;28;20064;-68
2023/09/09 10:34:06;;;;;;;19.50;15.85;;;;;;;;;;5055360;28;20127;-68
2023/09/09 10:36:36;;;;;;;16.50;14.05;;;;;;;;;;5054576;28;20032;-68
2023/09/09 10:39:02;;;;;;;22.58;17.60;;;;;;;;;;5054769;28;20062;-69
2023/09/09 10:41:28;;;;;;;18.27;15.20;;;;;;;;;;5054624;28;21954;-69
2023/09/09 10:43:54;;;;;;;18.40;14.23;;;;;;;;;;5055411;28;20028;-68
2023/09/09 10:46:33;;;;;;;17.73;15.82;;;;;;;;;;5055859;28;20569;-69
2023/09/09 10:49:03;;;;;;;18.10;16.30;;;;;;;;;;5055908;28;20168;-68
2023/09/09 10:51:29;;;;;;;18.23;16.13;;;;;;;;;;5054741;28;20031;-69
2023/09/09 10:54:11;;;;;;;19.00;16.23;;;;;;;;;;5054592;28;20020;-69
2023/09/09 10:56:47;;;;;;;17.35;15.38;;;;;;;;;;5050742;28;20043;-69
2023/09/09 10:59:17;;;;;;;20.10;15.70;;;;;;;;;;5052386;28;20031;-69
2023/09/09 11:01:43;;;;;;;16.33;14.63;;;;;;;;;;5054644;28;20114;-68
2023/09/09 11:04:19;;;;;;;17.10;15.27;;;;;;;;;;5053402;28;20028;-68
2023/09/09 11:07:04;;;;;;;19.15;17.02;;;;;;;;;;5054218;28;20028;-69
2023/09/09 11:09:31;;;;;;;25.27;19.42;;;;;;;;;;5055877;28;20989;-69
2023/09/09 11:11:57;;;;;;;19.45;16.30;;;;;;;;;;5055895;28;20035;-69
2023/09/09 11:14:29;;;;;;;18.48;16.48;;;;;;;;;;5055672;28;20085;-69
2023/09/09 11:16:55;;;;;;;19.98;17.85;;;;;;;;;;5055671;28;20669;-68
2023/09/09 11:19:23;;;;;;;20.48;18.30;;;;;;;;;;5055867;28;20055;-69
2023/09/09 11:21:50;;;;;;;18.83;16.52;;;;;;;;;;5055135;28;20758;-68
2023/09/09 11:24:17;;;;;;;19.60;17.50;;;;;;;;;;5055306;28;20097;-69
2023/09/09 11:26:44;;;;;;;18.98;15.65;;;;;;;;;;5055589;28;20032;-68
2023/09/09 11:29:11;;;;;;;14.85;13.00;;;;;;;;;;5055658;28;20135;-68
2023/09/09 11:31:37;;;;;;;17.95;14.93;;;;;;;;;;5055541;28;20738;-68
2023/09/09 11:34:05;;;;;;;18.40;16.50;;;;;;;;;;5055229;28;20522;-68
2023/09/09 11:36:31;;;;;;;17.08;14.95;;;;;;;;;;5055881;28;20048;-69
2023/09/09 11:38:59;;;;;;;20.42;18.23;;;;;;;;;;5055504;28;20032;-68
2023/09/09 11:41:26;;;;;;;23.13;15.95;;;;;;;;;;5055928;28;20924;-68
2023/09/09 11:44:03;;;;;;;19.73;17.63;;;;;;;;;;5052901;28;20025;-68
2023/09/09 11:46:30;;;;;;;17.38;14.93;;;;;;;;;;5055056;28;20536;-65
2023/09/09 11:48:57;;;;;;;18.30;16.15;;;;;;;;;;5053962;28;20044;-65
2023/09/09 11:51:23;;;;;;;19.23;13.52;;;;;;;;;;5048263;28;20063;-65
2023/09/09 11:53:49;;;;;;;16.42;13.35;;;;;;;;;;5056765;28;20039;-65
2023/09/09 11:56:18;;;;;;;14.45;11.07;;;;;;;;;;5058738;28;20036;-65
2023/09/09 11:58:44;;;;;;;15.82;11.60;;;;;;;;;;5058995;28;20043;-65
2023/09/09 12:01:10;;;;;;;12.32;10.65;;;;;;;;;;5058797;28;20032;-65
2023/09/09 12:03:37;;;;;;;14.18;10.82;;;;;;;;;;5058785;28;20041;-65
2023/09/09 12:06:07;;;;;;;15.70;9.70;;;;;;;;;;5058457;28;20033;-65
2023/09/09 12:08:33;;;;;;;14.98;11.20;;;;;;;;;;5058587;28;20031;-65
2023/09/09 12:11:00;;;;;;;14.23;10.73;;;;;;;;;;5058828;28;20051;-65
2023/09/09 12:13:26;;;;;;;13.32;10.90;;;;;;;;;;5058331;28;20032;-65
2023/09/09 12:15:53;;;;;;;17.38;12.77;;;;;;;;;;5059093;28;20063;-64
2023/09/09 12:18:19;;;;;;;13.82;10.27;;;;;;;;;;5058441;28;20036;-65
2023/09/09 12:21:05;;;;;;;11.48;9.48;;;;;;;;;;5059074;28;20041;-65
2023/09/09 12:23:32;;;;;;;11.65;8.43;;;;;;;;;;5058306;28;20055;-65
2023/09/09 12:26:07;;;;;;;11.95;7.45;;;;;;;;;;5058679;28;20024;-65
2023/09/09 12:28:33;;;;;;;10.25;8.18;;;;;;;;;;5058508;28;20028;-65
2023/09/09 12:30:59;;;;;;;11.93;7.40;;;;;;;;;;5058705;28;20114;-65
2023/09/09 12:33:25;;;;;;;12.40;9.02;;;;;;;;;;5057805;28;20027;-64
2023/09/09 12:35:51;;;;;;;15.23;8.38;;;;;;;;;;5057857;28;20044;-65
2023/09/09 12:38:19;;;;;;;12.82;9.52;;;;;;;;;;5058367;28;20028;-65
2023/09/09 12:40:48;;;;;;;12.90;7.78;;;;;;;;;;5058649;28;20031;-65
2023/09/09 12:43:15;;;;;;;11.98;7.50;;;;;;;;;;5058277;28;20028;-65
2023/09/09 12:45:48;;;;;;;12.93;8.07;;;;;;;;;;5057899;28;20089;-65
2023/09/09 12:48:14;;;;;;;9.38;8.18;;;;;;;;;;5058549;28;20036;-65
2023/09/09 12:50:40;;;;;;;11.55;8.65;;;;;;;;;;5058403;28;20036;-65
2023/09/09 12:53:06;;;;;;;11.52;8.05;;;;;;;;;;5057783;28;20032;-65
2023/09/09 12:55:32;;;;;;;10.30;7.35;;;;;;;;;;5057165;28;20185;-65
2023/09/09 12:57:59;;;;;;;10.70;6.15;;;;;;;;;;5057794;28;20790;-65
2023/09/09 13:00:26;;;;;;;12.13;7.28;;;;;;;;;;5057356;28;20040;-65
2023/09/09 13:02:52;;;;;;;9.55;6.80;;;;;;;;;;5057699;28;20403;-65
2023/09/09 13:05:19;;;;;;;9.75;6.55;;;;;;;;;;5056277;28;20066;-65
2023/09/09 13:07:45;;;;;;;9.15;6.65;;;;;;;;;;5055757;28;20036;-65
2023/09/09 13:10:11;;;;;;;9.25;6.22;;;;;;;;;;5055043;28;20052;-65
2023/09/09 13:12:37;;;;;;;10.90;6.60;;;;;;;;;;5055048;28;20032;-65
2023/09/09 13:15:04;;;;;;;9.27;5.32;;;;;;;;;;5056194;28;20032;-65
2023/09/09 13:17:30;;;;;;;11.23;6.57;;;;;;;;;;5055622;28;20487;-65
2023/09/09 13:19:56;;;;;;;8.27;5.68;;;;;;;;;;5055344;28;20581;-65
2023/09/09 13:22:22;;;;;;;9.40;6.10;;;;;;;;;;5056164;28;20047;-65
2023/09/09 13:24:48;;;;;;;10.13;6.15;;;;;;;;;;5056926;28;20094;-65
2023/09/09 13:27:14;;;;;;;11.93;6.05;;;;;;;;;;5057112;28;20032;-65
2023/09/09 13:29:40;;;;;;;8.63;6.57;;;;;;;;;;5057146;28;20997;-65
2023/09/09 13:32:06;;;;;;;10.27;7.07;;;;;;;;;;5057001;28;20024;-65
2023/09/09 13:34:32;;;;;;;8.43;6.05;;;;;;;;;;5056579;28;20043;-65
2023/09/09 13:36:58;;;;;;;11.18;6.55;;;;;;;;;;5057013;28;20135;-65
2023/09/09 13:39:24;;;;;;;8.73;6.15;;;;;;;;;;5056880;28;20032;-65
2023/09/09 13:41:50;;;;;;;7.80;5.47;;;;;;;;;;5056998;28;20035;-65
2023/09/09 13:44:16;;;;;;;9.30;5.85;;;;;;;;;;5057449;28;20031;-65
2023/09/09 13:46:42;;;;;;;7.50;4.97;;;;;;;;;;5057444;28;20032;-65
2023/09/09 13:49:09;;;;;;;7.03;5.30;;;;;;;;;;5057305;28;20029;-65
2023/09/09 13:51:35;;;;;;;9.30;5.20;;;;;;;;;;5056658;28;20032;-65
2023/09/09 13:54:02;;;;;;;8.52;4.90;;;;;;;;;;5056550;28;20031;-65
2023/09/09 13:56:29;;;;;;;6.97;4.72;;;;;;;;;;5056805;28;20035;-65
2023/09/09 13:58:58;;;;;;;7.95;4.93;;;;;;;;;;5055606;28;20059;-65
2023/09/09 14:01:24;;;;;;;6.95;4.72;;;;;;;;;;5055126;28;20028;-65
2023/09/09 14:03:50;;;;;;;7.85;5.18;;;;;;;;;;5053061;28;20047;-65
2023/09/09 14:06:16;;;;;;;8.30;4.88;;;;;;;;;;5056430;28;20031;-65
2023/09/09 14:08:42;;;;;;;7.90;5.18;;;;;;;;;;5056645;28;20023;-65
2023/09/09 14:11:08;;;;;;;7.13;5.28;;;;;;;;;;5056344;28;20028;-65
2023/09/09 14:13:36;;;;;;;9.73;5.50;;;;;;;;;;5057864;28;20036;-65
2023/09/09 14:16:02;;;;;;;8.10;5.30;;;;;;;;;;5054121;28;20047;-65
2023/09/09 14:18:28;;;;;;;9.07;5.47;;;;;;;;;;5055160;28;20040;-65
2023/09/09 14:20:54;;;;;;;7.90;5.70;;;;;;;;;;5057818;28;20036;-65
2023/09/09 14:23:20;;;;;;;8.48;5.00;;;;;;;;;;5057729;28;20139;-65